Terminal Aerodrome Forecast
Issued by NWS Wilmington, NC

Home | Current Version | Previous Version | Text Only | Print | Product List | Glossary On
Versions: 1 2 3 4 5 6 7 8 9 10 11 12 13 14 15
340
FTUS42 KILM 301720
TAFFLO
TAF
KFLO 301720Z 3018/0118 18013G22KT P6SM SCT030
      TEMPO 3018/3021 BKN030
     FM302200 17012G21KT P6SM SCT250
     FM010600 17010G19KT P6SM SCT010
      TEMPO 0108/0112 BKN010
     FM011200 18012G21KT P6SM BKN020=

USA.gov is the U.S. government's official web portal to all federal, state and local government web resources and services.